Time;durP1;ratioP1;P1;durP2;ratioP2;P2;SDS_P1;SDS_P2;PMS_P1;PMS_P2;Temp;Humidity;BMP_temperature;BMP_pressure;BME280_temperature;BME280_humidity;BME280_pressure;Samples;Min_cycle;Max_cycle;Signal;HPM_P1;HPM_P2
2023/06/13 00:01:35;;;;;;;2.47;1.35;;;15.40;99.90;;;;;;4975208;28;20261;-62
2023/06/13 00:04:03;;;;;;;1.00;1.00;;;15.40;99.90;;;;;;4981712;28;20050;-62
2023/06/13 00:06:29;;;;;;;2.22;1.33;;;15.30;99.90;;;;;;4983555;28;20123;-62
2023/06/13 00:08:57;;;;;;;1.58;1.27;;;15.40;99.90;;;;;;4977033;28;20153;-66
2023/06/13 00:11:22;;;;;;;1.55;1.25;;;15.40;99.90;;;;;;4979346;28;20057;-65
2023/06/13 00:13:48;;;;;;;2.50;1.10;;;15.40;99.90;;;;;;4966669;28;20034;-65
2023/06/13 00:16:15;;;;;;;1.88;1.15;;;15.40;99.90;;;;;;4975616;28;20160;-67
2023/06/13 00:18:41;;;;;;;1.13;1.02;;;15.40;99.90;;;;;;4976112;28;20129;-67
2023/06/13 00:21:07;;;;;;;4.28;1.10;;;15.40;99.90;;;;;;4983840;28;20040;-67
2023/06/13 00:23:33;;;;;;;2.25;1.23;;;15.40;99.90;;;;;;4986705;28;20034;-67
2023/06/13 00:25:59;;;;;;;3.03;1.20;;;15.30;99.90;;;;;;4976591;28;20635;-67
2023/06/13 00:28:25;;;;;;;2.40;1.02;;;15.30;99.90;;;;;;4972842;28;20184;-67
2023/06/13 00:30:51;;;;;;;3.95;1.02;;;15.30;99.90;;;;;;4984229;28;20857;-67
2023/06/13 00:33:17;;;;;;;1.30;1.17;;;15.20;99.90;;;;;;4984113;28;20040;-67
2023/06/13 00:35:46;;;;;;;3.50;1.40;;;15.20;99.90;;;;;;4989240;28;20631;-67
2023/06/13 00:38:12;;;;;;;1.48;1.17;;;15.20;99.90;;;;;;4966684;28;20602;-67
2023/06/13 00:40:40;;;;;;;3.75;1.15;;;15.20;99.90;;;;;;4976679;28;20050;-67
2023/06/13 00:43:06;;;;;;;1.67;1.25;;;15.20;99.90;;;;;;4974102;28;20117;-67
2023/06/13 00:45:33;;;;;;;2.85;1.20;;;15.10;99.90;;;;;;4986039;28;20080;-62
2023/06/13 00:48:08;;;;;;;2.15;1.40;;;15.20;99.90;;;;;;4971613;28;20846;-62
2023/06/13 00:50:44;;;;;;;1.80;1.30;;;15.10;99.90;;;;;;4984743;28;20058;-62
2023/06/13 00:53:16;;;;;;;3.00;1.30;;;15.10;99.90;;;;;;4970652;28;20038;-62
2023/06/13 00:55:42;;;;;;;1.55;1.15;;;15.10;99.90;;;;;;4979876;28;20570;-62
2023/06/13 00:58:10;;;;;;;2.63;1.10;;;15.00;99.90;;;;;;4980704;28;20054;-62
2023/06/13 01:00:37;;;;;;;3.35;1.02;;;15.00;99.90;;;;;;4978057;28;20045;-62
2023/06/13 01:03:09;;;;;;;3.42;1.20;;;15.10;99.90;;;;;;4985191;28;20076;-62
2023/06/13 01:05:35;;;;;;;1.42;1.20;;;15.10;99.90;;;;;;4989617;28;20049;-62
2023/06/13 01:08:06;;;;;;;1.48;1.10;;;15.10;99.90;;;;;;4982559;28;20118;-62
2023/06/13 01:10:33;;;;;;;2.25;1.20;;;15.00;99.90;;;;;;4980817;28;20057;-62
2023/06/13 01:13:11;;;;;;;1.92;1.13;;;15.00;99.90;;;;;;4978476;28;20467;-62
2023/06/13 01:15:52;;;;;;;1.38;1.25;;;14.90;99.90;;;;;;4978818;28;20038;-62
2023/06/13 01:18:24;;;;;;;3.25;1.00;;;14.90;99.90;;;;;;4978723;28;20142;-62
2023/06/13 01:20:56;;;;;;;4.05;1.45;;;14.90;99.90;;;;;;4981551;28;20037;-62
2023/06/13 01:23:44;;;;;;;3.78;1.30;;;14.80;99.90;;;;;;4984041;28;20042;-67
2023/06/13 01:26:21;;;;;;;3.05;1.30;;;14.80;99.90;;;;;;4981906;28;20038;-67
2023/06/13 01:28:51;;;;;;;3.15;1.40;;;14.70;99.90;;;;;;4986230;28;20049;-67
2023/06/13 01:31:21;;;;;;;4.32;1.48;;;14.60;99.90;;;;;;4983870;28;20430;-67
2023/06/13 01:33:47;;;;;;;3.95;1.00;;;14.70;99.90;;;;;;4981727;28;20034;-67
2023/06/13 01:36:13;;;;;;;1.75;1.50;;;14.60;99.90;;;;;;4985527;28;20045;-67
2023/06/13 01:38:40;;;;;;;3.17;1.10;;;14.60;99.90;;;;;;4982491;28;20070;-68
2023/06/13 01:41:05;;;;;;;1.70;1.05;;;14.60;99.90;;;;;;4976975;28;20034;-67
2023/06/13 01:43:31;;;;;;;1.40;1.30;;;14.60;99.90;;;;;;4984152;28;20069;-67
2023/06/13 01:46:07;;;;;;;1.42;1.00;;;14.50;99.90;;;;;;4946316;28;20932;-67
2023/06/13 01:49:03;;;;;;;2.45;1.38;;;14.50;99.90;;;;;;4980724;28;20042;-67
2023/06/13 01:51:47;;;;;;;2.92;1.15;;;14.40;99.90;;;;;;4980143;28;20050;-67
2023/06/13 01:54:18;;;;;;;5.43;1.10;;;14.40;99.90;;;;;;4982184;28;21214;-67
2023/06/13 01:56:48;;;;;;;1.88;1.20;;;14.40;99.90;;;;;;4976087;28;20042;-67
2023/06/13 01:59:18;;;;;;;2.13;1.63;;;14.30;99.90;;;;;;4977149;28;20039;-62
2023/06/13 02:01:45;;;;;;;1.10;1.00;;;14.30;99.90;;;;;;4978610;28;20076;-62
2023/06/13 02:04:10;;;;;;;3.22;1.10;;;14.30;99.90;;;;;;4986849;28;20061;-62
2023/06/13 02:06:36;;;;;;;1.92;1.30;;;14.30;99.90;;;;;;4989356;28;20642;-62
2023/06/13 02:09:03;;;;;;;3.08;1.23;;;14.20;99.90;;;;;;4970132;28;20069;-62
2023/06/13 02:11:29;;;;;;;1.30;1.17;;;14.20;99.90;;;;;;4989118;28;20138;-62
2023/06/13 02:13:55;;;;;;;1.63;1.20;;;14.20;99.90;;;;;;4990670;28;20118;-62
2023/06/13 02:16:25;;;;;;;2.35;1.20;;;14.10;99.90;;;;;;4982403;28;20859;-62
2023/06/13 02:18:51;;;;;;;1.83;1.30;;;14.10;99.90;;;;;;4978032;28;20034;-62
2023/06/13 02:21:17;;;;;;;5.85;1.42;;;14.10;99.90;;;;;;4984826;28;20046;-62
2023/06/13 02:23:43;;;;;;;1.80;1.48;;;14.10;99.90;;;;;;4985951;28;20037;-62
2023/06/13 02:26:08;;;;;;;1.65;1.15;;;14.00;99.90;;;;;;4989061;28;20046;-61
2023/06/13 02:28:34;;;;;;;3.60;1.13;;;14.00;99.90;;;;;;4986905;28;20042;-62
2023/06/13 02:31:00;;;;;;;4.75;1.00;;;14.00;99.90;;;;;;4966575;28;20049;-62
2023/06/13 02:33:30;;;;;;;2.70;1.10;;;13.90;99.90;;;;;;4985545;28;20097;-66
2023/06/13 02:35:55;;;;;;;1.88;1.25;;;13.90;99.90;;;;;;4981737;28;20148;-67
2023/06/13 02:38:21;;;;;;;3.55;1.38;;;13.90;99.90;;;;;;4983306;28;20084;-67
2023/06/13 02:40:47;;;;;;;3.03;1.10;;;13.90;99.90;;;;;;4983427;28;20486;-67
2023/06/13 02:43:12;;;;;;;2.10;1.08;;;13.90;99.90;;;;;;4984652;28;20031;-67
2023/06/13 02:45:38;;;;;;;2.25;1.20;;;13.80;99.90;;;;;;4986083;28;20041;-68
2023/06/13 02:48:04;;;;;;;1.58;1.20;;;13.80;99.90;;;;;;4992105;28;20474;-67
2023/06/13 02:50:30;;;;;;;2.15;1.45;;;13.80;99.90;;;;;;4985415;28;20120;-67
2023/06/13 02:52:55;;;;;;;3.83;1.10;;;13.80;99.90;;;;;;4983561;28;20064;-67
2023/06/13 02:55:21;;;;;;;5.47;1.40;;;13.80;99.90;;;;;;4985685;28;20046;-62
2023/06/13 02:57:47;;;;;;;3.15;1.20;;;13.80;99.90;;;;;;4974361;28;20832;-62
2023/06/13 03:00:15;;;;;;;1.50;1.27;;;13.70;99.90;;;;;;4984692;28;20042;-62
2023/06/13 03:02:43;;;;;;;4.82;1.20;;;13.70;99.90;;;;;;4982496;28;20367;-62
2023/06/13 03:05:10;;;;;;;2.63;1.05;;;13.70;99.90;;;;;;4984490;28;20044;-61
2023/06/13 03:07:36;;;;;;;1.90;1.40;;;13.70;99.90;;;;;;4979057;28;20585;-62
2023/06/13 03:10:04;;;;;;;1.80;1.33;;;13.70;99.90;;;;;;4976740;28;20050;-61
2023/06/13 03:12:30;;;;;;;3.55;1.33;;;13.70;99.90;;;;;;4979933;28;21628;-67
2023/06/13 03:14:56;;;;;;;3.05;1.20;;;13.70;99.90;;;;;;4976528;28;20491;-67
2023/06/13 03:17:22;;;;;;;2.58;1.27;;;13.70;99.90;;;;;;4980306;28;20116;-67
2023/06/13 03:19:48;;;;;;;2.33;1.00;;;13.70;99.90;;;;;;4980549;28;20041;-67
2023/06/13 03:22:14;;;;;;;6.43;1.48;;;13.70;99.90;;;;;;4977501;28;20127;-67
2023/06/13 03:24:47;;;;;;;4.35;1.50;;;13.60;99.90;;;;;;4983243;28;20054;-67
2023/06/13 03:27:13;;;;;;;5.20;1.10;;;13.60;99.90;;;;;;4978878;28;20073;-67
2023/06/13 03:29:42;;;;;;;5.45;1.25;;;13.60;99.90;;;;;;4981094;28;20077;-67
2023/06/13 03:32:11;;;;;;;1.33;1.23;;;13.60;99.90;;;;;;4978542;28;21941;-62
2023/06/13 03:34:38;;;;;;;1.73;1.23;;;13.60;99.90;;;;;;4985709;28;20924;-62
2023/06/13 03:37:06;;;;;;;2.25;1.25;;;13.50;99.90;;;;;;4980700;28;20121;-61
2023/06/13 03:39:31;;;;;;;1.90;1.20;;;13.50;99.90;;;;;;4990270;28;20137;-62
2023/06/13 03:41:58;;;;;;;1.63;1.40;;;13.50;99.90;;;;;;4984585;28;20018;-61
2023/06/13 03:44:23;;;;;;;2.20;1.38;;;13.50;99.90;;;;;;4980849;28;20545;-62
2023/06/13 03:46:49;;;;;;;1.90;1.33;;;13.50;99.90;;;;;;4984126;28;20120;-62
2023/06/13 03:49:15;;;;;;;2.72;1.42;;;13.50;99.90;;;;;;4980534;28;20128;-62
2023/06/13 03:51:41;;;;;;;2.15;1.60;;;13.60;99.90;;;;;;4987926;28;22222;-62
2023/06/13 03:54:07;;;;;;;1.90;1.13;;;13.60;99.90;;;;;;4988366;28;20062;-61
2023/06/13 03:56:33;;;;;;;2.75;1.17;;;13.60;99.90;;;;;;4987163;28;20053;-62
2023/06/13 03:58:58;;;;;;;2.53;1.17;;;13.70;99.90;;;;;;4981770;28;20045;-61
2023/06/13 04:01:24;;;;;;;1.73;1.30;;;13.80;99.90;;;;;;4988774;28;20055;-61
2023/06/13 04:03:50;;;;;;;1.35;1.25;;;13.80;99.90;;;;;;4983052;28;20050;-61
2023/06/13 04:06:16;;;;;;;3.92;1.20;;;13.80;99.90;;;;;;4985712;28;20046;-61
2023/06/13 04:08:41;;;;;;;2.25;1.25;;;13.80;99.90;;;;;;4986930;28;20038;-62
2023/06/13 04:11:07;;;;;;;2.10;1.80;;;13.90;99.90;;;;;;4983685;28;20542;-61
2023/06/13 04:13:33;;;;;;;3.10;1.27;;;13.90;99.90;;;;;;4976076;28;20037;-62
2023/06/13 04:15:58;;;;;;;3.40;1.60;;;14.10;99.90;;;;;;4985405;28;20437;-62
2023/06/13 04:18:24;;;;;;;3.55;1.30;;;14.20;99.90;;;;;;4991683;28;20048;-61
2023/06/13 04:20:53;;;;;;;1.77;1.10;;;14.40;99.90;;;;;;4986476;28;20123;-62
2023/06/13 04:23:20;;;;;;;2.72;1.40;;;14.50;99.90;;;;;;4984925;28;20056;-61
2023/06/13 04:25:45;;;;;;;3.78;1.52;;;14.70;99.90;;;;;;4984300;28;20117;-61
2023/06/13 04:28:13;;;;;;;1.52;1.40;;;14.90;99.90;;;;;;4980445;28;20099;-62
2023/06/13 04:30:40;;;;;;;1.13;1.00;;;15.00;99.90;;;;;;4982180;28;20030;-62
2023/06/13 04:33:13;;;;;;;2.03;1.40;;;15.10;99.90;;;;;;4965398;28;20540;-62
2023/06/13 04:35:44;;;;;;;4.18;1.42;;;15.20;99.90;;;;;;4983779;28;20038;-62
2023/06/13 04:38:14;;;;;;;1.65;1.38;;;15.30;99.90;;;;;;4985209;28;20051;-62
2023/06/13 04:40:40;;;;;;;2.08;1.33;;;15.50;99.90;;;;;;4986381;28;20044;-62
2023/06/13 04:43:05;;;;;;;1.25;1.15;;;15.50;99.90;;;;;;4985424;28;20030;-61
2023/06/13 04:45:32;;;;;;;2.25;1.15;;;15.60;99.90;;;;;;4987787;28;20085;-61
2023/06/13 04:48:01;;;;;;;1.02;0.98;;;15.70;99.90;;;;;;4985910;28;20766;-61
2023/06/13 04:50:28;;;;;;;1.40;1.13;;;15.80;99.90;;;;;;4990910;28;20053;-61
2023/06/13 04:52:54;;;;;;;1.52;1.40;;;15.90;99.90;;;;;;4974902;28;20073;-61
2023/06/13 04:55:29;;;;;;;1.90;1.40;;;16.00;99.90;;;;;;4977891;28;20096;-62
2023/06/13 04:57:55;;;;;;;1.30;1.20;;;16.00;99.90;;;;;;4982094;28;20069;-62
2023/06/13 05:00:22;;;;;;;1.60;1.20;;;16.00;99.90;;;;;;4985881;28;20120;-61
2023/06/13 05:02:48;;;;;;;4.47;1.20;;;16.10;99.90;;;;;;4980395;28;20164;-67
2023/06/13 05:05:18;;;;;;;2.75;0.95;;;16.20;99.90;;;;;;4971052;28;20200;-66
2023/06/13 05:07:44;;;;;;;1.80;1.20;;;16.30;99.90;;;;;;4978680;28;20107;-66
2023/06/13 05:10:10;;;;;;;0.90;0.90;;;16.30;99.90;;;;;;4969731;28;20030;-66
2023/06/13 05:12:35;;;;;;;3.67;1.00;;;16.40;99.90;;;;;;4980818;28;20053;-66
2023/06/13 05:15:01;;;;;;;1.08;1.00;;;16.40;99.90;;;;;;4969006;28;20038;-67
2023/06/13 05:17:29;;;;;;;2.65;1.25;;;16.40;99.90;;;;;;4972408;28;20096;-66
2023/06/13 05:19:55;;;;;;;1.00;0.90;;;16.50;99.90;;;;;;4964844;28;20177;-66
2023/06/13 05:22:20;;;;;;;0.90;0.90;;;16.50;99.90;;;;;;4968952;28;20066;-63
2023/06/13 05:24:47;;;;;;;2.17;1.30;;;16.60;99.90;;;;;;4970664;28;20403;-63
2023/06/13 05:27:13;;;;;;;3.00;1.30;;;16.70;99.90;;;;;;4971782;28;20080;-63
2023/06/13 05:29:38;;;;;;;9.38;1.35;;;16.70;99.90;;;;;;4971107;28;20026;-63
2023/06/13 05:32:05;;;;;;;3.05;1.20;;;16.80;99.90;;;;;;4952650;28;20116;-63
2023/06/13 05:34:31;;;;;;;2.97;1.00;;;16.80;99.90;;;;;;4971910;28;20042;-63
2023/06/13 05:36:57;;;;;;;2.55;1.00;;;16.90;99.90;;;;;;4974418;28;20463;-64
2023/06/13 05:39:22;;;;;;;18.95;4.88;;;16.90;99.90;;;;;;4972764;28;20053;-64
2023/06/13 05:41:48;;;;;;;2.75;1.60;;;17.00;99.90;;;;;;4968306;28;20117;-65
2023/06/13 05:44:14;;;;;;;5.53;1.25;;;17.10;99.90;;;;;;4972503;28;20104;-65
2023/06/13 05:46:41;;;;;;;2.92;1.20;;;17.10;99.90;;;;;;4976778;28;20136;-65
2023/06/13 05:49:07;;;;;;;2.83;1.20;;;17.10;99.90;;;;;;4984935;28;20727;-65
2023/06/13 05:51:33;;;;;;;1.35;1.08;;;17.10;99.90;;;;;;4979755;28;20491;-65
2023/06/13 05:53:59;;;;;;;2.30;1.10;;;17.10;99.90;;;;;;4989226;28;20217;-64
2023/06/13 05:56:25;;;;;;;2.10;1.38;;;17.20;99.90;;;;;;4986639;28;20042;-65
2023/06/13 05:58:51;;;;;;;1.40;0.73;;;17.20;99.90;;;;;;4981646;28;20775;-65
2023/06/13 06:01:19;;;;;;;1.45;1.15;;;17.30;99.90;;;;;;4979332;28;20131;-65
2023/06/13 06:03:46;;;;;;;5.97;1.33;;;17.30;99.90;;;;;;4979900;28;20531;-65
2023/06/13 06:06:12;;;;;;;1.60;1.33;;;17.40;99.90;;;;;;4976925;28;20053;-65
2023/06/13 06:08:38;;;;;;;3.13;1.23;;;17.60;99.90;;;;;;4985406;28;20042;-65
2023/06/13 12:45:22;;;;;;;1.75;1.52;;;21.80;92.40;;;;;;6045240;23;1376701;-65
2023/06/13 12:47:47;;;;;;;2.00;1.27;;;21.90;92.10;;;;;;6099321;23;20013;-66
2023/06/13 12:50:13;;;;;;;1.38;1.27;;;22.10;91.50;;;;;;6115332;23;20009;-65
2023/06/13 12:52:39;;;;;;;2.63;1.15;;;22.20;90.80;;;;;;6114032;23;20455;-65
2023/06/13 12:55:05;;;;;;;1.60;1.40;;;22.30;91.10;;;;;;6119782;23;20002;-65
2023/06/13 12:57:31;;;;;;;2.33;1.10;;;22.40;90.60;;;;;;6118042;23;20014;-66
2023/06/13 12:59:57;;;;;;;1.98;1.40;;;22.40;84.60;;;;;;6121330;23;20006;-65
2023/06/13 13:02:24;;;;;;;1.38;1.20;;;22.30;89.80;;;;;;6118879;23;20109;-65
2023/06/13 13:05:03;;;;;;;1.25;1.05;;;22.20;87.10;;;;;;6121500;23;20002;-65
2023/06/13 13:07:30;;;;;;;1.48;1.38;;;22.10;88.70;;;;;;6122572;23;20025;-65
2023/06/13 13:09:57;;;;;;;4.07;1.10;;;22.10;90.10;;;;;;6120935;23;20001;-65
2023/06/13 13:12:24;;;;;;;1.38;1.10;;;22.20;90.70;;;;;;6116807;23;20020;-66
2023/06/13 13:14:50;;;;;;;3.25;1.20;;;22.30;91.90;;;;;;6116439;23;19998;-65
2023/06/13 13:17:15;;;;;;;2.05;1.50;;;22.40;89.50;;;;;;6116173;23;20018;-65
2023/06/13 13:19:41;;;;;;;2.13;1.30;;;22.40;85.90;;;;;;6114891;23;20061;-65
2023/06/13 13:22:07;;;;;;;1.38;1.02;;;22.30;89.00;;;;;;6106622;23;20025;-66
2023/06/13 13:24:33;;;;;;;3.33;1.50;;;22.40;86.80;;;;;;6101094;23;20351;-67
2023/06/13 13:26:59;;;;;;;1.23;1.00;;;22.40;85.30;;;;;;6106572;23;19998;-68
2023/06/13 13:29:25;;;;;;;3.60;1.40;;;22.50;84.80;;;;;;6108273;23;20458;-67
2023/06/13 13:31:51;;;;;;;1.33;1.10;;;22.50;85.90;;;;;;6111705;23;20002;-67
2023/06/13 13:34:16;;;;;;;1.38;1.10;;;22.60;87.30;;;;;;6114366;23;20426;-67
2023/06/13 13:36:42;;;;;;;1.30;1.20;;;22.60;88.20;;;;;;6112343;23;20016;-67
2023/06/13 13:39:10;;;;;;;2.55;1.33;;;22.50;84.40;;;;;;6113128;23;20021;-67
2023/06/13 13:41:36;;;;;;;1.90;1.10;;;22.50;86.30;;;;;;6114888;23;20002;-67
2023/06/13 13:44:05;;;;;;;6.00;0.95;;;22.50;84.80;;;;;;6112992;23;20398;-67
2023/06/13 13:46:30;;;;;;;1.23;1.10;;;22.60;84.80;;;;;;6109122;23;20018;-67
2023/06/13 13:48:57;;;;;;;2.63;1.30;;;22.60;86.20;;;;;;6111682;23;20006;-67
2023/06/13 13:51:23;;;;;;;2.30;1.20;;;22.70;85.80;;;;;;6106932;23;20014;-67
2023/06/13 13:53:53;;;;;;;2.03;1.27;;;22.70;88.40;;;;;;6114876;23;20006;-67
2023/06/13 13:56:19;;;;;;;2.08;1.38;;;22.70;83.60;;;;;;6112733;23;20006;-67
2023/06/13 13:58:45;;;;;;;2.63;1.50;;;22.70;85.50;;;;;;6114034;23;20021;-67
2023/06/13 14:01:10;;;;;;;2.17;1.20;;;22.70;79.40;;;;;;6107753;23;20002;-67
2023/06/13 14:03:36;;;;;;;1.45;1.10;;;22.70;77.90;;;;;;6112006;23;20527;-67
2023/06/13 14:06:03;;;;;;;2.55;1.15;;;22.60;79.10;;;;;;6111360;23;20010;-67
2023/06/13 14:08:28;;;;;;;1.15;1.05;;;22.60;80.90;;;;;;6105450;23;20141;-67
2023/06/13 14:10:55;;;;;;;1.42;1.20;;;22.70;79.90;;;;;;6108408;23;20026;-67
2023/06/13 14:13:21;;;;;;;2.20;1.20;;;22.70;82.70;;;;;;6113136;23;20064;-67
2023/06/13 14:15:47;;;;;;;2.42;1.30;;;22.80;79.50;;;;;;6108416;23;20006;-65
2023/06/13 14:18:12;;;;;;;5.70;1.20;;;22.80;79.70;;;;;;6111184;23;20097;-65
2023/06/13 14:20:38;;;;;;;1.48;1.17;;;22.70;76.20;;;;;;6106394;23;20001;-65
2023/06/13 14:23:04;;;;;;;1.40;1.30;;;22.60;77.00;;;;;;6107492;23;20024;-65
2023/06/13 14:25:29;;;;;;;1.33;1.20;;;22.50;78.10;;;;;;6110781;23;20093;-65
2023/06/13 14:27:55;;;;;;;1.85;1.20;;;22.50;82.70;;;;;;6109035;23;20009;-65
2023/06/13 14:30:21;;;;;;;2.00;1.20;;;22.50;78.80;;;;;;6104683;23;20190;-65
2023/06/13 14:32:46;;;;;;;1.30;1.20;;;22.50;82.10;;;;;;6106197;23;20466;-66
2023/06/13 14:35:12;;;;;;;7.13;1.55;;;22.50;79.70;;;;;;6104433;23;20006;-67
2023/06/13 14:37:37;;;;;;;1.40;1.13;;;22.30;78.50;;;;;;6106611;23;20018;-67
2023/06/13 14:40:04;;;;;;;1.75;1.27;;;22.30;78.80;;;;;;6103730;23;20032;-67
2023/06/13 14:42:30;;;;;;;1.95;1.50;;;22.40;81.30;;;;;;6106422;23;20354;-67
2023/06/13 14:44:55;;;;;;;1.50;1.40;;;22.40;80.00;;;;;;6105334;23;20005;-67
2023/06/13 14:47:21;;;;;;;1.60;1.30;;;22.30;77.00;;;;;;6108628;23;20091;-67
2023/06/13 14:49:47;;;;;;;1.83;1.30;;;22.30;79.30;;;;;;6103767;23;20049;-67
2023/06/13 14:52:12;;;;;;;1.48;1.20;;;22.20;80.20;;;;;;6109029;23;20663;-67
2023/06/13 14:54:38;;;;;;;1.75;1.38;;;22.30;80.00;;;;;;6110164;23;20036;-67
2023/06/13 14:57:04;;;;;;;2.30;1.00;;;22.40;81.70;;;;;;6110445;23;20010;-67
2023/06/13 14:59:29;;;;;;;1.48;1.20;;;22.50;77.70;;;;;;6111221;23;20017;-67
2023/06/13 15:01:55;;;;;;;1.50;1.38;;;22.50;76.70;;;;;;6107543;23;20470;-68
2023/06/13 15:04:21;;;;;;;1.83;1.30;;;22.50;74.60;;;;;;6110061;23;20009;-67
2023/06/13 15:06:49;;;;;;;1.48;1.08;;;22.50;75.00;;;;;;6110317;23;20033;-67
2023/06/13 15:09:16;;;;;;;1.30;1.17;;;22.50;74.80;;;;;;6114002;23;20002;-67
2023/06/13 15:11:43;;;;;;;1.35;0.95;;;22.50;76.60;;;;;;6109106;23;20085;-65
2023/06/13 15:14:09;;;;;;;2.28;1.25;;;22.50;79.20;;;;;;6108208;23;20017;-65
2023/06/13 15:16:37;;;;;;;3.13;1.42;;;22.60;81.00;;;;;;6108821;23;20005;-65
2023/06/13 15:19:03;;;;;;;1.20;1.10;;;22.60;77.00;;;;;;6111445;23;20076;-65
2023/06/13 15:21:30;;;;;;;2.35;1.20;;;22.60;78.30;;;;;;6110200;23;20088;-65
2023/06/13 15:23:56;;;;;;;3.42;1.15;;;22.60;77.70;;;;;;6111261;23;20081;-65
2023/06/13 15:26:21;;;;;;;1.30;1.20;;;22.60;79.80;;;;;;6111527;23;20836;-65
2023/06/13 15:28:49;;;;;;;2.85;2.22;;;22.60;80.10;;;;;;6112597;23;20006;-65
2023/06/13 15:31:19;;;;;;;1.38;1.27;;;22.60;77.00;;;;;;6107594;23;20017;-65
2023/06/13 15:33:44;;;;;;;1.38;1.27;;;22.60;78.50;;;;;;6112284;23;20009;-64
2023/06/13 15:36:10;;;;;;;2.10;1.30;;;22.60;77.60;;;;;;6109507;23;20143;-65
2023/06/13 15:38:36;;;;;;;2.17;1.23;;;22.60;78.20;;;;;;6112660;23;20021;-65
2023/06/13 15:41:02;;;;;;;1.50;1.10;;;22.60;74.30;;;;;;6109065;23;20061;-65
2023/06/13 15:43:28;;;;;;;2.08;1.20;;;22.60;73.30;;;;;;6111054;23;20009;-64
2023/06/13 15:45:54;;;;;;;1.13;1.02;;;22.60;75.20;;;;;;6110909;23;20506;-65
2023/06/13 15:48:20;;;;;;;1.25;1.10;;;22.60;73.10;;;;;;6109387;23;20395;-65
2023/06/13 15:50:46;;;;;;;1.67;1.10;;;22.50;71.50;;;;;;6112423;23;19996;-64
2023/06/13 15:53:11;;;;;;;1.55;1.45;;;22.40;74.50;;;;;;6111766;23;20529;-64
2023/06/13 15:55:39;;;;;;;1.85;1.30;;;22.40;77.30;;;;;;6113373;23;20008;-64
2023/06/13 15:58:06;;;;;;;4.47;1.67;;;22.60;78.10;;;;;;6110029;23;20018;-64
2023/06/13 16:00:31;;;;;;;1.52;1.40;;;22.50;78.30;;;;;;6107986;23;20013;-64
2023/06/13 16:02:57;;;;;;;3.22;1.30;;;22.50;76.60;;;;;;6106390;23;20006;-64
2023/06/13 16:05:23;;;;;;;3.88;1.30;;;22.50;76.60;;;;;;6108191;23;20006;-64
2023/06/13 16:07:48;;;;;;;1.17;1.08;;;22.40;80.80;;;;;;6108579;23;20010;-64
2023/06/13 16:10:15;;;;;;;2.67;1.75;;;22.40;78.90;;;;;;6106978;23;20016;-65
2023/06/13 16:12:43;;;;;;;2.58;1.05;;;22.40;80.20;;;;;;6105199;23;20006;-64
2023/06/13 16:15:08;;;;;;;1.90;1.08;;;22.20;83.10;;;;;;6110908;23;20013;-64
2023/06/13 16:17:34;;;;;;;4.18;1.10;;;22.10;81.50;;;;;;6109438;23;20006;-64
2023/06/13 16:19:59;;;;;;;2.33;1.33;;;22.10;78.60;;;;;;6105843;23;20029;-64
2023/06/13 16:22:25;;;;;;;2.10;1.20;;;22.10;80.60;;;;;;6106950;23;20006;-64
2023/06/13 16:24:51;;;;;;;1.58;1.48;;;22.10;80.60;;;;;;6110205;23;20420;-64
2023/06/13 16:27:16;;;;;;;2.60;1.40;;;22.10;78.80;;;;;;6110510;23;20093;-64
2023/06/13 16:29:42;;;;;;;1.35;1.25;;;22.10;79.00;;;;;;6110969;23;20614;-64
2023/06/13 16:32:08;;;;;;;2.80;1.40;;;22.10;78.70;;;;;;6112352;23;20010;-64
2023/06/13 16:34:35;;;;;;;1.10;1.00;;;22.20;78.40;;;;;;6111577;23;20060;-64
2023/06/13 16:37:01;;;;;;;3.03;1.60;;;22.20;76.40;;;;;;6108666;23;20010;-64
2023/06/13 16:39:27;;;;;;;2.30;1.38;;;22.20;79.90;;;;;;6111996;23;20006;-64
2023/06/13 16:41:52;;;;;;;2.08;1.30;;;22.20;78.60;;;;;;6112659;23;20292;-64
2023/06/13 16:44:18;;;;;;;8.30;1.63;;;22.20;79.20;;;;;;6113671;23;20006;-64
2023/06/13 16:46:44;;;;;;;2.40;1.30;;;22.20;78.80;;;;;;6111649;23;20336;-64
2023/06/13 16:49:10;;;;;;;1.70;1.10;;;22.20;79.90;;;;;;6112156;23;20017;-64
2023/06/13 16:51:35;;;;;;;5.70;1.38;;;22.20;80.50;;;;;;6108078;23;20089;-64
2023/06/13 16:54:01;;;;;;;1.50;1.30;;;22.20;78.80;;;;;;6112722;23;20537;-64
2023/06/13 16:56:26;;;;;;;3.05;1.25;;;22.10;79.20;;;;;;6113368;23;19998;-64
2023/06/13 16:58:52;;;;;;;1.50;1.35;;;22.10;77.00;;;;;;6115126;23;20022;-64
2023/06/13 17:01:17;;;;;;;2.28;1.20;;;22.10;79.10;;;;;;6114449;23;20013;-64
2023/06/13 17:03:43;;;;;;;1.45;1.27;;;22.10;79.20;;;;;;6111070;23;20410;-65
2023/06/13 17:06:08;;;;;;;4.93;1.60;;;22.10;79.00;;;;;;6113255;23;20085;-64
2023/06/13 17:08:34;;;;;;;1.98;1.25;;;22.10;79.40;;;;;;6111778;23;20013;-64
2023/06/13 17:11:00;;;;;;;1.92;1.15;;;22.10;79.60;;;;;;6113257;23;20006;-64
2023/06/13 17:13:25;;;;;;;2.10;1.17;;;22.00;79.10;;;;;;6112239;23;20490;-64
2023/06/13 17:15:51;;;;;;;1.13;1.05;;;22.00;80.40;;;;;;6112068;23;20006;-64
2023/06/13 17:18:16;;;;;;;1.98;1.30;;;21.90;79.70;;;;;;6112640;23;20073;-64
2023/06/13 17:20:45;;;;;;;1.10;1.00;;;21.80;80.90;;;;;;6112514;23;20021;-64
2023/06/13 17:23:12;;;;;;;2.42;1.73;;;21.80;82.00;;;;;;6114359;23;20085;-64
2023/06/13 17:25:39;;;;;;;1.67;1.58;;;21.80;86.20;;;;;;6111539;23;20001;-64
2023/06/13 17:28:05;;;;;;;3.92;1.23;;;21.80;87.30;;;;;;6112941;23;20010;-65
2023/06/13 17:30:31;;;;;;;3.22;1.25;;;21.80;90.50;;;;;;6112685;23;20030;-64
2023/06/13 17:32:57;;;;;;;1.38;1.05;;;21.70;91.10;;;;;;6113254;23;20331;-64
2023/06/13 17:35:23;;;;;;;1.15;1.05;;;21.70;91.70;;;;;;6113060;23;20006;-65
2023/06/13 17:37:49;;;;;;;2.63;1.25;;;21.70;91.70;;;;;;6113528;23;20530;-64
2023/06/13 17:40:15;;;;;;;1.27;1.15;;;21.60;92.00;;;;;;6108897;23;20002;-64
2023/06/13 17:42:41;;;;;;;3.83;1.30;;;21.50;91.70;;;;;;6112946;23;20060;-64
2023/06/13 17:45:08;;;;;;;3.08;1.20;;;21.40;92.30;;;;;;6107978;23;20001;-64
2023/06/13 17:47:36;;;;;;;2.63;1.33;;;21.40;92.20;;;;;;6111451;23;20065;-64
2023/06/13 17:50:02;;;;;;;2.22;1.27;;;21.20;93.20;;;;;;6106297;23;20510;-64
2023/06/13 17:52:27;;;;;;;2.15;1.45;;;21.00;93.80;;;;;;6110153;23;20375;-64
2023/06/13 17:54:53;;;;;;;4.00;1.23;;;20.90;94.70;;;;;;6112749;23;20009;-68
2023/06/13 17:57:19;;;;;;;3.30;1.52;;;20.80;95.10;;;;;;6109966;23;20025;-68
2023/06/13 17:59:45;;;;;;;2.00;1.13;;;20.70;94.50;;;;;;6113270;23;20101;-67
2023/06/13 18:02:13;;;;;;;3.08;1.30;;;20.60;94.30;;;;;;6113389;23;20081;-68
2023/06/13 18:04:39;;;;;;;2.45;1.60;;;20.50;94.30;;;;;;6112428;23;20049;-68
2023/06/13 18:07:05;;;;;;;5.55;1.17;;;20.40;95.60;;;;;;6112998;23;20002;-68
2023/06/13 18:09:31;;;;;;;3.95;1.30;;;20.30;96.80;;;;;;6116136;23;20006;-68
2023/06/13 18:11:56;;;;;;;1.55;1.30;;;20.10;97.40;;;;;;6114068;23;20702;-68
2023/06/13 18:14:22;;;;;;;3.55;1.90;;;20.00;98.30;;;;;;6113850;23;20010;-65
2023/06/13 18:16:47;;;;;;;2.13;1.55;;;19.90;98.80;;;;;;6110738;23;20002;-64
2023/06/13 18:19:13;;;;;;;5.43;3.00;;;19.70;99.50;;;;;;6113105;23;20010;-64
2023/06/13 18:21:39;;;;;;;2.55;1.30;;;19.60;99.00;;;;;;6113753;23;20006;-64
2023/06/13 18:24:05;;;;;;;2.67;2.35;;;19.40;99.20;;;;;;6113297;23;20009;-64
2023/06/13 18:26:31;;;;;;;3.72;1.67;;;19.30;99.10;;;;;;6111926;23;20089;-64
2023/06/13 18:28:56;;;;;;;5.97;1.63;;;19.20;98.80;;;;;;6114220;23;20602;-64
2023/06/13 18:31:22;;;;;;;2.17;1.73;;;19.10;98.90;;;;;;6112526;23;20477;-64
2023/06/13 18:33:48;;;;;;;3.25;1.30;;;19.00;99.10;;;;;;6107297;23;20048;-64
2023/06/13 18:36:13;;;;;;;2.78;1.38;;;19.00;99.10;;;;;;6108180;23;20661;-65
2023/06/13 18:38:39;;;;;;;3.13;1.70;;;18.90;99.20;;;;;;6107933;23;20252;-65
2023/06/13 18:41:05;;;;;;;10.55;1.90;;;18.80;99.00;;;;;;6110381;23;20001;-64
2023/06/13 18:43:31;;;;;;;1.50;1.25;;;18.80;99.90;;;;;;6108008;23;20020;-64
2023/06/13 18:45:56;;;;;;;126.40;9.00;;;18.70;99.90;;;;;;6109002;23;20021;-64
2023/06/13 18:48:22;;;;;;;3.92;1.48;;;18.60;99.90;;;;;;6103980;23;20014;-64
2023/06/13 18:50:49;;;;;;;2.42;1.20;;;18.50;99.90;;;;;;6111357;23;20013;-64
2023/06/13 18:53:15;;;;;;;1.63;1.52;;;18.50;99.90;;;;;;6112855;23;20006;-64
2023/06/13 18:55:41;;;;;;;3.45;1.10;;;18.40;99.80;;;;;;6113556;23;20033;-64
2023/06/13 18:58:06;;;;;;;3.38;1.23;;;18.30;99.90;;;;;;6111606;23;20056;-64
2023/06/13 19:00:35;;;;;;;3.78;1.30;;;18.30;99.90;;;;;;6111800;23;20014;-64
2023/06/13 19:03:01;;;;;;;2.65;1.52;;;18.10;99.90;;;;;;6111117;23;20005;-64
2023/06/13 19:05:28;;;;;;;2.15;1.27;;;18.10;99.90;;;;;;6113590;23;20485;-64
2023/06/13 19:07:54;;;;;;;2.42;1.23;;;18.00;99.90;;;;;;6108448;23;20013;-65
2023/06/13 19:10:20;;;;;;;5.13;1.67;;;18.00;99.90;;;;;;6109061;23;20002;-68
2023/06/13 19:12:48;;;;;;;2.92;1.40;;;18.00;99.90;;;;;;6110016;23;20013;-68
2023/06/13 19:15:14;;;;;;;3.20;1.13;;;18.00;99.90;;;;;;6112645;23;20059;-68
2023/06/13 19:17:42;;;;;;;2.35;1.20;;;18.00;99.90;;;;;;6111120;23;20021;-68